Time;durP1;ratioP1;P1;durP2;ratioP2;P2;SDS_P1;SDS_P2;PMS_P1;PMS_P2;Temp;Humidity;BMP_temperature;BMP_pressure;BME280_temperature;BME280_humidity;BME280_pressure;Samples;Min_cycle;Max_cycle;Signal;HPM_P1;HPM_P2
2023/03/20 00:00:51;;;;;;;11.77;5.15;;;7.40;99.90;;;;;;5120586;27;20123;-78
2023/03/20 00:03:16;;;;;;;;;;;7.40;99.90;;;;;;5110920;27;20057;-79
2023/03/20 00:05:42;;;;;;;8.32;4.20;;;7.40;99.90;;;;;;5112413;27;20381;-78
2023/03/20 00:08:08;;;;;;;8.15;4.72;;;7.40;99.90;;;;;;5109246;27;20414;-78
2023/03/20 00:10:45;;;;;;;13.77;4.63;;;7.40;99.90;;;;;;5106732;27;20130;-78
2023/03/20 00:13:27;;;;;;;10.18;3.85;;;7.80;99.90;;;;;;5095727;27;20627;-78
2023/03/20 00:15:53;;;;;;;9.85;4.50;;;7.80;99.90;;;;;;5125320;27;20037;-78
2023/03/20 00:18:24;;;;;;;13.13;5.43;;;7.30;99.90;;;;;;5119234;27;20415;-77
2023/03/20 00:20:50;;;;;;;13.05;4.22;;;7.30;99.90;;;;;;5089202;27;20126;-78
2023/03/20 00:23:17;;;;;;;10.82;5.18;;;7.30;99.90;;;;;;5109146;27;20075;-78
2023/03/20 00:25:44;;;;;;;7.20;3.88;;;7.30;99.90;;;;;;5103128;27;20142;-78
2023/03/20 00:28:40;;;;;;;13.57;5.15;;;7.30;99.90;;;;;;5088771;27;20242;-78
2023/03/20 00:31:25;;;;;;;11.52;4.40;;;7.30;99.90;;;;;;5102862;27;20083;-78
2023/03/20 00:33:57;;;;;;;10.93;4.40;;;7.30;99.90;;;;;;5109678;27;20070;-78
2023/03/20 00:36:23;;;;;;;13.35;5.10;;;7.30;99.90;;;;;;5119505;27;20788;-78
2023/03/20 00:38:50;;;;;;;10.38;4.93;;;7.30;99.90;;;;;;5095824;27;20039;-80
2023/03/20 00:41:30;;;;;;;9.05;5.07;;;7.30;99.90;;;;;;5097254;27;20027;-79
2023/03/20 00:44:03;;;;;;;9.88;4.35;;;7.30;99.90;;;;;;5101070;27;20487;-78
2023/03/20 00:46:38;;;;;;;10.02;4.60;;;7.20;99.90;;;;;;5087104;27;20047;-79
2023/03/20 00:49:04;;;;;;;9.45;4.57;;;7.30;99.90;;;;;;5091987;27;20147;-79
2023/03/20 00:51:30;;;;;;;11.52;4.82;;;7.30;99.90;;;;;;5134080;27;20039;-78
2023/03/20 00:53:56;;;;;;;10.18;4.78;;;7.40;99.90;;;;;;5112392;27;20069;-78
2023/03/20 00:56:35;;;;;;;12.50;4.88;;;7.30;99.90;;;;;;5107591;27;20091;-79
2023/03/20 00:59:03;;;;;;;11.93;4.90;;;7.30;99.90;;;;;;5129320;27;20215;-79
2023/03/20 01:01:30;;;;;;;9.70;4.63;;;7.30;99.90;;;;;;5130825;27;20100;-79
2023/03/20 01:03:57;;;;;;;9.93;4.22;;;7.30;99.90;;;;;;5091424;27;21377;-78
2023/03/20 01:06:23;;;;;;;9.70;4.75;;;7.30;99.90;;;;;;5105031;27;20038;-78
2023/03/20 01:08:49;;;;;;;11.25;4.53;;;7.30;99.90;;;;;;5121247;27;20050;-78
2023/03/20 01:11:21;;;;;;;11.40;4.90;;;7.30;99.90;;;;;;5105757;27;20035;-78
2023/03/20 01:13:48;;;;;;;10.02;4.70;;;7.30;99.90;;;;;;5093595;27;20519;-78
2023/03/20 01:16:20;;;;;;;14.38;4.35;;;7.30;99.90;;;;;;5092155;27;20063;-78
2023/03/20 01:18:47;;;;;;;14.35;5.00;;;7.30;99.90;;;;;;5101904;27;20496;-79
2023/03/20 01:21:12;;;;;;;10.95;4.47;;;7.30;99.90;;;;;;5087320;27;20039;-79
2023/03/20 01:23:38;;;;;;;15.52;4.97;;;7.30;99.90;;;;;;5088523;27;20623;-79
2023/03/20 01:26:21;;;;;;;22.98;5.60;;;7.30;99.90;;;;;;5120756;27;20040;-79
2023/03/20 01:28:48;;;;;;;15.75;5.90;;;7.30;99.90;;;;;;5105794;27;20074;-80
2023/03/20 01:31:16;;;;;;;17.00;5.88;;;7.30;99.90;;;;;;5104522;27;20499;-79
2023/03/20 01:33:42;;;;;;;14.23;5.25;;;7.30;99.90;;;;;;5129767;27;20461;-79
2023/03/20 01:36:10;;;;;;;11.55;5.38;;;7.30;99.90;;;;;;5120468;27;20125;-79
2023/03/20 01:38:37;;;;;;;12.88;5.22;;;7.30;99.90;;;;;;5083869;28;20493;-79
2023/03/20 01:41:07;;;;;;;11.70;5.13;;;7.30;99.90;;;;;;5099692;28;20805;-79
2023/03/20 01:43:33;;;;;;;15.27;6.00;;;7.30;99.90;;;;;;5098979;28;20063;-79
2023/03/20 01:46:08;;;;;;;14.85;6.63;;;7.40;99.90;;;;;;5101956;28;20069;-80
2023/03/20 01:48:49;;;;;;;13.85;6.43;;;7.40;99.90;;;;;;5099259;28;20122;-79
2023/03/20 01:51:22;;;;;;;14.43;6.00;;;7.40;99.90;;;;;;5102507;28;20067;-80
2023/03/20 01:54:05;;;;;;;11.95;5.70;;;7.40;99.90;;;;;;5103888;28;20298;-80
2023/03/20 01:56:35;;;;;;;15.25;6.68;;;7.40;99.90;;;;;;5102679;28;20154;-79
2023/03/20 01:59:13;;;;;;;16.58;6.60;;;7.40;99.90;;;;;;5102821;28;20425;-79
2023/03/20 02:01:40;;;;;;;16.85;6.50;;;7.40;99.90;;;;;;5084615;28;20097;-79
2023/03/20 02:04:07;;;;;;;19.40;7.57;;;7.40;99.90;;;;;;5085538;28;20063;-78
2023/03/20 02:06:35;;;;;;;15.90;6.90;;;7.40;99.90;;;;;;5100603;28;20078;-79
2023/03/20 02:09:01;;;;;;;18.23;6.82;;;7.40;99.90;;;;;;5102022;28;20437;-78
2023/03/20 02:11:28;;;;;;;21.42;7.47;;;7.40;99.90;;;;;;5102223;28;20460;-79
2023/03/20 02:13:56;;;;;;;19.45;8.00;;;7.40;99.90;;;;;;5099872;28;20043;-79
2023/03/20 02:16:25;;;;;;;17.23;6.90;;;7.40;99.90;;;;;;5099647;28;20047;-79
2023/03/20 02:18:55;;;;;;;23.50;8.40;;;7.40;99.90;;;;;;5102865;28;20035;-78
2023/03/20 02:21:35;;;;;;;19.25;7.55;;;7.40;99.90;;;;;;5104188;28;20101;-78
2023/03/20 02:24:16;;;;;;;18.70;6.68;;;7.40;99.90;;;;;;5102550;28;20044;-79
2023/03/20 02:26:45;;;;;;;21.55;7.85;;;7.40;99.90;;;;;;5102861;28;20056;-78
2023/03/20 02:29:27;;;;;;;20.30;7.05;;;7.40;99.90;;;;;;5101252;28;20050;-78
2023/03/20 02:32:34;;;;;;;16.45;6.95;;;7.40;99.90;;;;;;5097694;28;20392;-78
2023/03/20 02:35:16;;;;;;;16.25;7.35;;;7.40;99.90;;;;;;5115688;27;20055;-78
2023/03/20 02:38:04;;;;;;;17.25;6.82;;;7.40;99.90;;;;;;5091011;27;20138;-77
2023/03/20 02:40:52;;;;;;;20.40;6.65;;;7.50;99.90;;;;;;5108730;27;20040;-79
2023/03/20 02:43:40;;;;;;;19.80;7.03;;;7.40;99.90;;;;;;5123588;27;20032;-78
2023/03/20 02:46:11;;;;;;;19.23;7.05;;;7.50;99.90;;;;;;5093726;27;20463;-78
2023/03/20 02:48:42;;;;;;;;;;;7.50;99.90;;;;;;5123746;27;20568;-79
2023/03/20 02:51:15;;;;;;;15.73;6.35;;;7.50;99.90;;;;;;5113829;27;19976;-80
2023/03/20 02:53:53;;;;;;;18.85;6.85;;;7.40;99.90;;;;;;5132540;27;20585;-79
2023/03/20 02:56:36;;;;;;;15.43;6.70;;;7.40;99.90;;;;;;5106030;27;20049;-79
2023/03/20 02:59:10;;;;;;;14.55;6.70;;;7.50;99.90;;;;;;5105024;27;20050;-78
2023/03/20 03:01:47;;;;;;;18.05;6.57;;;7.50;99.90;;;;;;5117846;27;20043;-78
2023/03/20 03:04:22;;;;;;;19.75;7.05;;;7.50;99.90;;;;;;5101362;27;20496;-78
2023/03/20 03:06:51;;;;;;;17.20;7.05;;;7.50;99.90;;;;;;5123826;27;20422;-79
2023/03/20 03:09:52;;;;;;;21.65;7.30;;;7.50;99.90;;;;;;5101987;27;20066;-79
2023/03/20 03:12:26;;;;;;;16.85;7.10;;;7.50;99.90;;;;;;5104292;27;20366;-78
2023/03/20 03:14:56;;;;;;;19.52;7.57;;;7.50;99.90;;;;;;5105776;27;20534;-79
2023/03/20 03:17:26;;;;;;;18.33;8.15;;;7.50;99.90;;;;;;5092155;27;20039;-79
2023/03/20 03:19:57;;;;;;;19.67;7.80;;;7.50;99.90;;;;;;5088035;27;20042;-79
2023/03/20 03:22:23;;;;;;;17.42;8.05;;;7.50;99.90;;;;;;5107904;27;20449;-78
2023/03/20 03:24:53;;;;;;;17.92;8.52;;;7.50;99.90;;;;;;5097331;27;20057;-78
2023/03/20 03:27:39;;;;;;;23.83;8.57;;;7.50;99.90;;;;;;5104443;27;20043;-79
2023/03/20 03:30:12;;;;;;;19.00;8.25;;;7.50;99.90;;;;;;5090349;27;20907;-78
2023/03/20 03:32:49;;;;;;;14.70;7.60;;;7.50;99.90;;;;;;5115548;27;20331;-78
2023/03/20 03:35:21;;;;;;;15.82;7.38;;;7.50;99.90;;;;;;5103631;27;20057;-79
2023/03/20 03:37:49;;;;;;;16.30;8.50;;;7.60;99.90;;;;;;5092826;27;20127;-79
2023/03/20 03:41:01;;;;;;;19.38;8.30;;;7.50;99.90;;;;;;5102123;27;20507;-79
2023/03/20 03:43:32;;;;;;;15.98;7.97;;;7.50;99.90;;;;;;5121054;27;20061;-79
2023/03/20 03:46:04;;;;;;;18.80;9.25;;;7.60;99.90;;;;;;5088743;27;20050;-79
2023/03/20 03:48:36;;;;;;;;;;;7.50;99.90;;;;;;5120475;27;20044;-79
2023/03/20 03:51:07;;;;;;;18.70;7.55;;;7.50;99.90;;;;;;5088453;27;20446;-79
2023/03/20 03:53:41;;;;;;;;;;;7.50;99.90;;;;;;5112706;27;20057;-79
2023/03/20 03:56:12;;;;;;;15.15;6.95;;;7.50;99.90;;;;;;5088205;27;19923;-79
2023/03/20 03:58:51;;;;;;;15.45;7.45;;;7.70;99.90;;;;;;5111142;27;20526;-79
2023/03/20 04:01:19;;;;;;;18.23;7.88;;;7.50;99.90;;;;;;5095577;27;20086;-80
2023/03/20 04:04:01;;;;;;;17.65;7.18;;;7.60;99.90;;;;;;5131081;27;20035;-79
2023/03/20 04:06:27;;;;;;;15.85;6.82;;;7.50;99.90;;;;;;5135512;27;20067;-79
2023/03/20 04:08:53;;;;;;;20.13;7.03;;;7.50;99.90;;;;;;5129073;27;20039;-79
2023/03/20 04:11:23;;;;;;;15.68;7.50;;;7.50;99.90;;;;;;5111667;27;20093;-79
2023/03/20 04:13:51;;;;;;;14.35;7.20;;;7.50;99.90;;;;;;5114686;27;20154;-79
2023/03/20 04:16:19;;;;;;;17.70;7.07;;;7.50;99.90;;;;;;5113183;27;20531;-79
2023/03/20 04:18:46;;;;;;;16.67;7.05;;;7.50;99.90;;;;;;5093610;27;20058;-79
2023/03/20 04:21:12;;;;;;;15.68;7.13;;;7.50;99.90;;;;;;5115752;27;20049;-79
2023/03/20 04:23:38;;;;;;;13.50;7.32;;;7.50;99.90;;;;;;5096440;27;20397;-79
2023/03/20 04:26:05;;;;;;;17.92;7.35;;;7.50;99.90;;;;;;5120111;27;20035;-79
2023/03/20 04:28:30;;;;;;;18.73;7.32;;;7.50;99.90;;;;;;5112123;27;20477;-79
2023/03/20 04:30:58;;;;;;;17.05;8.50;;;7.50;99.90;;;;;;5116786;27;20043;-79
2023/03/20 04:33:25;;;;;;;19.10;7.93;;;7.70;99.90;;;;;;5097767;27;20468;-78
2023/03/20 04:35:51;;;;;;;16.17;8.02;;;7.60;99.90;;;;;;5091758;28;20043;-78
2023/03/20 04:38:18;;;;;;;17.95;8.10;;;7.50;99.90;;;;;;5092692;28;20377;-79
2023/03/20 04:40:45;;;;;;;14.43;7.82;;;7.50;99.90;;;;;;5083201;28;20043;-79
2023/03/20 04:43:11;;;;;;;18.17;8.55;;;7.50;99.90;;;;;;5084075;28;20052;-79
2023/03/20 04:45:36;;;;;;;19.63;8.48;;;7.50;99.90;;;;;;5094922;28;20474;-79
2023/03/20 04:48:02;;;;;;;20.15;8.75;;;7.40;99.90;;;;;;5068415;28;20389;-79
2023/03/20 04:50:28;;;;;;;18.55;9.18;;;7.50;99.90;;;;;;5092784;28;20452;-79
2023/03/20 04:52:54;;;;;;;21.00;7.75;;;7.40;99.90;;;;;;5104139;28;20046;-79
2023/03/20 04:55:21;;;;;;;20.42;8.40;;;7.50;99.90;;;;;;5092505;28;20036;-79
2023/03/20 04:57:47;;;;;;;19.23;8.63;;;7.40;99.90;;;;;;5079805;28;20054;-79
2023/03/20 05:00:13;;;;;;;20.95;8.73;;;7.50;99.90;;;;;;5095189;28;20043;-79
2023/03/20 05:02:39;;;;;;;19.88;9.07;;;7.40;99.90;;;;;;5084182;28;20454;-79
2023/03/20 05:05:05;;;;;;;21.23;9.48;;;7.50;99.90;;;;;;5085604;28;20151;-78
2023/03/20 05:07:31;;;;;;;18.38;9.60;;;7.40;99.90;;;;;;5086960;28;20036;-79
2023/03/20 05:09:57;;;;;;;20.67;8.98;;;7.40;99.90;;;;;;5086750;28;20415;-78
2023/03/20 05:12:25;;;;;;;18.98;9.00;;;7.50;99.90;;;;;;5087907;28;20048;-79
2023/03/20 05:14:53;;;;;;;19.40;9.57;;;7.40;99.90;;;;;;5068901;28;20040;-79
2023/03/20 05:17:20;;;;;;;17.95;9.32;;;7.40;99.90;;;;;;5068000;28;20087;-79
2023/03/20 05:19:46;;;;;;;21.83;9.68;;;7.40;99.90;;;;;;5085641;28;20158;-79
2023/03/20 05:22:12;;;;;;;21.00;10.15;;;7.40;99.90;;;;;;5084799;28;20127;-79
2023/03/20 05:24:38;;;;;;;23.00;10.40;;;7.60;99.90;;;;;;5090482;28;20500;-79
2023/03/20 05:27:04;;;;;;;26.55;10.20;;;7.50;99.90;;;;;;5092736;28;20040;-79
2023/03/20 05:29:30;;;;;;;18.40;9.48;;;7.80;99.90;;;;;;5072065;28;20142;-79
2023/03/20 05:31:56;;;;;;;18.98;9.52;;;7.40;99.90;;;;;;5068997;28;20052;-79
2023/03/20 05:34:21;;;;;;;20.58;8.80;;;7.50;99.90;;;;;;5098575;27;20043;-79
2023/03/20 05:36:47;;;;;;;18.38;8.60;;;7.50;99.90;;;;;;5131189;27;20074;-79
2023/03/20 05:39:13;;;;;;;17.33;9.23;;;7.40;99.90;;;;;;5126085;27;20050;-78
2023/03/20 05:41:39;;;;;;;17.70;9.00;;;7.40;99.90;;;;;;5100425;27;20123;-79
2023/03/20 05:44:04;;;;;;;17.23;8.73;;;7.40;99.90;;;;;;5084379;27;20092;-79
2023/03/20 05:46:30;;;;;;;20.42;8.95;;;7.40;99.90;;;;;;5102023;27;20554;-80
2023/03/20 05:48:56;;;;;;;15.73;8.30;;;7.40;99.90;;;;;;5082607;27;20047;-80
2023/03/20 05:51:22;;;;;;;20.38;8.65;;;7.40;99.90;;;;;;5083074;27;20039;-81
2023/03/20 05:53:48;;;;;;;19.55;8.18;;;7.20;99.90;;;;;;5083157;27;20480;-81
2023/03/20 05:56:13;;;;;;;16.02;8.18;;;7.40;99.90;;;;;;5085039;27;20191;-81
2023/03/20 05:58:41;;;;;;;17.55;8.90;;;7.40;99.90;;;;;;5095119;27;20446;-81
2023/03/20 06:01:06;;;;;;;20.38;9.48;;;7.90;99.90;;;;;;5079491;27;20055;-81
2023/03/20 06:03:32;;;;;;;20.38;8.98;;;7.40;99.90;;;;;;5127461;27;20282;-81
2023/03/20 06:05:58;;;;;;;21.50;9.07;;;7.80;99.90;;;;;;5126898;27;20070;-81
2023/03/20 06:08:23;;;;;;;18.40;9.05;;;7.40;99.90;;;;;;5101578;27;20050;-82
2023/03/20 06:10:50;;;;;;;18.75;8.45;;;7.40;99.90;;;;;;5094372;27;20039;-81
2023/03/20 06:13:16;;;;;;;21.55;8.57;;;7.20;99.90;;;;;;5076306;27;20463;-81
2023/03/20 06:15:42;;;;;;;19.73;9.43;;;7.40;99.90;;;;;;5081474;27;20100;-81
2023/03/20 06:18:08;;;;;;;17.77;9.25;;;7.40;99.90;;;;;;5078022;27;20473;-81
2023/03/20 06:20:34;;;;;;;16.50;8.35;;;7.30;99.90;;;;;;5080289;27;20043;-82
2023/03/20 06:23:00;;;;;;;20.70;9.48;;;7.40;99.90;;;;;;5094720;27;20048;-81
2023/03/20 06:25:26;;;;;;;22.38;10.05;;;7.40;99.90;;;;;;5096351;27;20134;-81
2023/03/20 06:27:51;;;;;;;19.02;8.43;;;7.40;99.90;;;;;;5111075;27;20048;-81
2023/03/20 06:30:17;;;;;;;17.25;8.75;;;7.40;99.90;;;;;;5116861;27;20099;-80
2023/03/20 06:32:44;;;;;;;19.10;10.32;;;7.40;99.90;;;;;;5121180;27;20434;-79
2023/03/20 06:35:11;;;;;;;20.17;9.55;;;7.40;99.90;;;;;;5101066;27;20074;-80
2023/03/20 06:37:37;;;;;;;22.42;10.48;;;7.40;99.90;;;;;;5094986;27;20079;-80
2023/03/20 06:40:04;;;;;;;18.30;9.85;;;7.40;99.90;;;;;;5115704;27;20085;-80
2023/03/20 06:42:29;;;;;;;26.45;9.95;;;7.50;99.90;;;;;;5096298;27;20113;-80
2023/03/20 06:44:55;;;;;;;20.17;9.95;;;7.50;99.90;;;;;;5098261;27;20046;-80
2023/03/20 06:47:25;;;;;;;21.15;9.40;;;7.00;99.90;;;;;;5095730;27;20043;-79
2023/03/20 06:49:50;;;;;;;21.25;9.90;;;7.50;99.90;;;;;;5086945;27;20066;-80
2023/03/20 06:52:18;;;;;;;18.05;9.52;;;7.80;99.90;;;;;;5084312;27;20118;-80
2023/03/20 06:54:44;;;;;;;19.20;9.45;;;7.50;99.90;;;;;;5088061;27;20066;-80
2023/03/20 06:57:10;;;;;;;16.75;8.82;;;7.50;99.90;;;;;;5083840;27;20105;-80
2023/03/20 06:59:36;;;;;;;16.58;9.40;;;7.80;99.90;;;;;;5081091;27;20480;-80
2023/03/20 07:02:03;;;;;;;19.88;9.20;;;7.50;99.90;;;;;;5121793;27;20038;-80
2023/03/20 07:04:28;;;;;;;23.40;10.13;;;7.60;99.90;;;;;;5102382;27;20524;-80
2023/03/20 07:06:54;;;;;;;22.92;10.63;;;7.60;99.90;;;;;;5103406;27;20330;-79
2023/03/20 07:09:23;;;;;;;15.98;10.05;;;7.50;99.90;;;;;;5100563;27;20568;-78
2023/03/20 07:11:53;;;;;;;19.70;10.23;;;7.60;99.90;;;;;;5103073;27;20047;-80
2023/03/20 07:14:19;;;;;;;18.00;9.43;;;7.60;99.90;;;;;;5106088;27;20035;-80
2023/03/20 07:16:45;;;;;;;22.83;10.50;;;7.60;99.90;;;;;;5103420;27;20288;-80
2023/03/20 07:19:12;;;;;;;22.20;9.98;;;7.60;99.90;;;;;;5123838;27;20047;-80
2023/03/20 07:21:38;;;;;;;22.33;10.95;;;7.60;99.90;;;;;;5103762;27;20051;-79
2023/03/20 07:24:06;;;;;;;20.38;9.93;;;7.70;99.90;;;;;;5114054;27;20053;-79
2023/03/20 07:26:32;;;;;;;18.90;9.38;;;7.70;99.90;;;;;;5116898;27;20050;-80
2023/03/20 07:28:57;;;;;;;21.33;10.35;;;7.80;99.90;;;;;;5108522;27;20293;-79
2023/03/20 07:31:27;;;;;;;25.92;10.90;;;7.80;99.90;;;;;;5104636;27;20518;-80
2023/03/20 07:33:53;;;;;;;23.13;10.52;;;8.10;99.90;;;;;;5080853;27;20530;-80
2023/03/20 07:36:19;;;;;;;21.88;10.13;;;7.90;99.90;;;;;;5121650;27;20054;-80
2023/03/20 07:38:45;;;;;;;22.20;10.90;;;7.90;99.90;;;;;;5095707;27;20298;-80
2023/03/20 07:41:11;;;;;;;21.08;10.48;;;8.10;99.90;;;;;;5099317;27;20503;-80
2023/03/20 07:43:37;;;;;;;23.23;10.43;;;7.90;99.90;;;;;;5101125;27;20092;-80
2023/03/20 07:46:07;;;;;;;23.67;10.80;;;8.00;99.90;;;;;;5097704;27;20172;-80
2023/03/20 07:48:36;;;;;;;23.73;10.43;;;8.00;99.90;;;;;;5104461;27;20392;-80
2023/03/20 07:51:02;;;;;;;20.92;11.13;;;8.00;99.90;;;;;;5083304;27;20465;-80
2023/03/20 07:53:28;;;;;;;21.05;10.73;;;8.00;99.90;;;;;;5085902;27;20050;-80
2023/03/20 07:55:54;;;;;;;23.23;10.70;;;8.20;99.90;;;;;;5086712;27;20035;-79
2023/03/20 07:58:19;;;;;;;21.80;10.35;;;8.40;99.90;;;;;;5122946;27;20062;-80
2023/03/20 08:00:45;;;;;;;22.13;11.10;;;8.00;99.90;;;;;;5099404;27;20503;-81
2023/03/20 08:03:11;;;;;;;23.20;11.05;;;8.00;99.90;;;;;;5123303;27;20499;-80
2023/03/20 08:05:37;;;;;;;25.00;11.32;;;8.00;99.90;;;;;;5118801;27;20043;-80
2023/03/20 08:08:02;;;;;;;21.38;10.73;;;8.10;99.90;;;;;;5117315;27;20493;-79
2023/03/20 08:10:28;;;;;;;22.52;10.85;;;8.10;99.90;;;;;;5086347;27;20070;-79
2023/03/20 08:12:54;;;;;;;20.95;10.20;;;8.10;99.90;;;;;;5132792;27;20035;-81
2023/03/20 08:15:21;;;;;;;21.63;10.57;;;8.10;99.90;;;;;;5117398;27;20046;-77
2023/03/20 08:17:47;;;;;;;22.55;11.15;;;8.20;99.90;;;;;;5130354;27;20043;-80
2023/03/20 08:20:15;;;;;;;23.00;10.90;;;8.20;99.90;;;;;;5098015;27;20053;-80
2023/03/20 08:22:41;;;;;;;22.17;11.13;;;8.20;99.90;;;;;;5097893;27;20039;-81
2023/03/20 08:25:08;;;;;;;24.25;10.27;;;8.30;99.90;;;;;;5101495;27;20442;-80
2023/03/20 08:27:35;;;;;;;22.95;10.60;;;8.20;99.90;;;;;;5121430;27;20035;-80
2023/03/20 08:30:02;;;;;;;22.60;10.90;;;8.20;99.90;;;;;;5100150;27;20142;-80
2023/03/20 08:32:27;;;;;;;24.83;11.13;;;8.30;99.90;;;;;;5100647;27;20055;-80
2023/03/20 08:34:54;;;;;;;23.52;10.50;;;8.30;99.90;;;;;;5121742;27;20047;-80
2023/03/20 08:37:21;;;;;;;22.90;11.18;;;8.30;99.90;;;;;;5084143;27;20068;-80
2023/03/20 08:39:47;;;;;;;24.80;11.25;;;8.30;99.90;;;;;;5100931;27;20274;-80
2023/03/20 08:42:13;;;;;;;21.90;10.45;;;8.30;99.90;;;;;;5084410;27;20043;-80
2023/03/20 08:44:39;;;;;;;23.35;11.15;;;8.30;99.90;;;;;;5135056;27;20079;-80
2023/03/20 08:47:06;;;;;;;21.92;10.75;;;8.30;99.90;;;;;;5119383;27;20047;-80
2023/03/20 08:49:33;;;;;;;19.58;10.70;;;8.40;99.90;;;;;;5100738;27;20140;-80
2023/03/20 08:51:59;;;;;;;20.80;10.80;;;8.40;99.90;;;;;;5121154;27;20130;-80
2023/03/20 08:54:25;;;;;;;19.38;10.52;;;8.40;99.90;;;;;;5136015;27;20035;-80
2023/03/20 08:56:52;;;;;;;21.95;10.68;;;8.40;99.90;;;;;;5099110;27;20931;-80
2023/03/20 08:59:18;;;;;;;23.08;10.00;;;8.50;99.90;;;;;;5083404;27;20258;-79
2023/03/20 09:01:45;;;;;;;19.30;10.23;;;8.50;99.90;;;;;;5118822;27;20051;-80
2023/03/20 09:04:12;;;;;;;24.35;10.35;;;8.50;99.90;;;;;;5101190;27;20045;-80
2023/03/20 09:06:38;;;;;;;23.50;10.27;;;8.60;99.90;;;;;;5101998;27;20574;-80
2023/03/20 09:09:04;;;;;;;26.38;8.98;;;8.60;99.90;;;;;;5120332;27;20034;-80
2023/03/20 09:11:31;;;;;;;24.02;9.40;;;8.60;99.90;;;;;;5101414;27;20572;-80
2023/03/20 09:13:57;;;;;;;24.17;10.15;;;8.70;99.90;;;;;;5086812;27;20392;-80
2023/03/20 09:16:22;;;;;;;20.75;9.77;;;8.70;99.90;;;;;;5121493;27;20141;-80
2023/03/20 09:18:48;;;;;;;20.60;8.88;;;8.80;99.90;;;;;;5102916;27;20452;-80
2023/03/20 09:21:14;;;;;;;24.50;10.07;;;8.80;99.90;;;;;;5102428;27;20587;-80
2023/03/20 09:23:41;;;;;;;19.80;9.27;;;8.80;99.90;;;;;;5114118;27;20051;-79
2023/03/20 09:26:07;;;;;;;18.17;9.48;;;8.90;99.90;;;;;;5098785;27;20032;-80
2023/03/20 09:28:32;;;;;;;23.15;9.30;;;8.90;99.90;;;;;;5081851;27;20488;-81
2023/03/20 09:30:59;;;;;;;17.08;9.15;;;9.00;99.90;;;;;;5080589;27;20341;-79
2023/03/20 09:33:25;;;;;;;18.52;9.48;;;9.00;99.90;;;;;;5096147;27;21289;-80
2023/03/20 09:35:51;;;;;;;19.48;9.10;;;9.00;99.90;;;;;;5082118;27;20047;-80
2023/03/20 09:38:17;;;;;;;16.33;8.23;;;9.00;99.90;;;;;;5100559;27;20046;-80
2023/03/20 09:41:04;;;;;;;21.92;8.88;;;9.00;99.90;;;;;;5120414;27;20041;-81
2023/03/20 09:43:45;;;;;;;25.90;9.73;;;9.00;99.90;;;;;;5118863;27;20043;-81
2023/03/20 09:46:41;;;;;;;21.90;9.45;;;9.10;99.90;;;;;;5118749;27;20423;-81
2023/03/20 09:49:36;;;;;;;22.45;9.05;;;9.10;99.90;;;;;;5101539;27;20177;-81
2023/03/20 09:52:33;;;;;;;22.80;10.15;;;9.20;99.90;;;;;;5091828;27;20047;-80
2023/03/20 09:55:13;;;;;;;19.42;8.23;;;9.30;99.90;;;;;;5119956;27;21120;-80
2023/03/20 09:57:42;;;;;;;19.60;8.35;;;9.40;99.90;;;;;;5105565;27;20449;-80
2023/03/20 10:00:19;;;;;;;18.60;8.73;;;9.40;99.90;;;;;;5103923;27;20130;-81
2023/03/20 10:02:53;;;;;;;15.75;8.40;;;9.50;99.90;;;;;;5103900;27;20445;-80
2023/03/20 10:05:28;;;;;;;19.20;8.45;;;9.60;99.90;;;;;;5139389;27;20423;-80
2023/03/20 10:07:56;;;;;;;18.58;8.77;;;9.50;99.90;;;;;;5102939;27;20051;-81
2023/03/20 10:10:45;;;;;;;18.10;8.85;;;9.60;99.90;;;;;;5121308;27;20051;-80
2023/03/20 10:13:17;;;;;;;20.33;9.85;;;9.60;99.90;;;;;;5055628;27;20065;-80
2023/03/20 10:16:08;;;;;;;19.55;7.95;;;9.90;99.90;;;;;;5126659;27;20039;-80
2023/03/20 10:18:39;;;;;;;24.10;8.45;;;9.70;99.90;;;;;;5087811;27;20114;-79
2023/03/20 10:21:17;;;;;;;17.15;9.02;;;9.80;99.90;;;;;;5138517;27;20043;-80
2023/03/20 10:24:03;;;;;;;26.73;8.35;;;9.70;99.90;;;;;;5102705;27;20054;-80
2023/03/20 10:26:32;;;;;;;17.33;7.97;;;9.70;99.90;;;;;;5102614;27;20074;-80
2023/03/20 10:29:00;;;;;;;16.48;7.72;;;10.00;99.90;;;;;;5120773;27;20446;-79
2023/03/20 10:31:37;;;;;;;21.38;8.32;;;9.70;99.90;;;;;;5103439;27;20458;-80
2023/03/20 10:34:18;;;;;;;22.95;9.13;;;10.10;99.90;;;;;;5119118;27;20055;-80
2023/03/20 10:36:47;;;;;;;22.77;8.85;;;9.80;99.90;;;;;;5103087;27;20519;-80
2023/03/20 10:39:13;;;;;;;18.17;8.80;;;9.80;99.90;;;;;;5103720;27;20047;-80
2023/03/20 10:41:43;;;;;;;17.17;7.57;;;10.20;99.90;;;;;;5105106;27;20452;-80
2023/03/20 10:44:17;;;;;;;23.70;8.18;;;9.90;99.90;;;;;;5104308;27;20054;-81
2023/03/20 10:46:49;;;;;;;18.50;8.15;;;10.00;99.90;;;;;;5121548;27;20067;-81
2023/03/20 10:49:37;;;;;;;17.02;7.22;;;10.00;99.90;;;;;;5122185;27;20054;-81
2023/03/20 10:52:11;;;;;;;21.73;8.27;;;10.00;99.90;;;;;;5089524;27;20039;-81
2023/03/20 10:54:44;;;;;;;16.55;7.65;;;10.00;99.90;;;;;;5092266;27;20050;-81
2023/03/20 10:57:25;;;;;;;21.75;8.15;;;9.90;99.90;;;;;;5092745;27;20050;-81
2023/03/20 10:59:53;;;;;;;18.52;7.38;;;10.00;99.90;;;;;;5115550;27;20387;-81
2023/03/20 11:02:22;;;;;;;18.35;6.85;;;9.90;99.90;;;;;;5093198;27;20548;-80
2023/03/20 11:04:48;;;;;;;19.42;8.07;;;9.90;99.90;;;;;;5129943;27;20046;-80
2023/03/20 11:07:36;;;;;;;15.93;7.75;;;9.80;99.90;;;;;;5111821;27;20087;-80
2023/03/20 11:10:08;;;;;;;20.83;7.95;;;9.80;99.90;;;;;;5130660;27;20051;-80
2023/03/20 11:12:46;;;;;;;28.73;8.65;;;9.80;99.90;;;;;;5096274;27;20051;-80
2023/03/20 11:15:17;;;;;;;17.27;6.85;;;9.70;99.90;;;;;;5104500;27;20039;-80
2023/03/20 11:17:51;;;;;;;15.45;6.95;;;9.70;99.90;;;;;;5104519;27;20050;-80
2023/03/20 11:20:17;;;;;;;15.77;7.35;;;9.70;99.90;;;;;;5086776;27;20407;-80
2023/03/20 11:22:43;;;;;;;14.68;6.60;;;9.70;99.90;;;;;;5094255;27;20399;-80
2023/03/20 11:25:28;;;;;;;19.98;7.70;;;9.70;99.90;;;;;;5109841;27;20046;-80
2023/03/20 11:27:55;;;;;;;17.75;7.20;;;9.70;99.90;;;;;;5089571;27;20184;-80
2023/03/20 11:30:21;;;;;;;12.48;5.82;;;9.80;99.90;;;;;;5109272;27;20100;-80
2023/03/20 11:32:51;;;;;;;18.35;6.15;;;9.80;99.90;;;;;;5089575;27;20472;-80
2023/03/20 11:35:25;;;;;;;18.00;5.95;;;9.70;99.90;;;;;;5092884;27;20051;-80
2023/03/20 11:38:07;;;;;;;19.13;6.80;;;9.70;99.90;;;;;;5129631;27;20209;-79
2023/03/20 11:40:33;;;;;;;18.52;5.45;;;9.80;99.90;;;;;;5119261;27;20042;-80
2023/03/20 11:43:12;;;;;;;18.27;6.03;;;9.70;99.90;;;;;;5097396;27;20099;-79
2023/03/20 11:45:41;;;;;;;14.73;5.80;;;9.70;99.90;;;;;;5100662;27;20080;-80
2023/03/20 11:48:19;;;;;;;13.38;5.35;;;9.80;99.90;;;;;;5126434;27;20052;-80
2023/03/20 11:51:03;;;;;;;15.07;4.78;;;9.70;99.90;;;;;;5103172;27;20076;-80
2023/03/20 11:53:45;;;;;;;13.35;4.32;;;9.70;99.90;;;;;;5105281;27;20054;-80
2023/03/20 11:56:14;;;;;;;11.73;4.25;;;9.70;99.90;;;;;;5105362;27;20242;-79
2023/03/20 11:58:55;;;;;;;12.52;4.55;;;9.60;99.90;;;;;;5085131;27;20881;-80
2023/03/20 12:01:21;;;;;;;;;;;9.50;99.90;;;;;;5125908;27;20047;-79
2023/03/20 12:04:10;;;;;;;9.18;3.33;;;9.60;99.90;;;;;;5126589;27;19924;-80
2023/03/20 12:06:45;;;;;;;9.23;3.15;;;9.50;99.90;;;;;;5118783;27;20053;-80
2023/03/20 12:09:53;;;;;;;13.20;3.83;;;9.60;99.90;;;;;;5104344;27;20039;-80
2023/03/20 12:12:39;;;;;;;16.75;4.18;;;9.60;99.90;;;;;;5100801;27;20133;-79
2023/03/20 12:15:11;;;;;;;11.88;4.13;;;9.60;99.90;;;;;;5111088;27;21593;-79
2023/03/20 12:17:51;;;;;;;10.80;4.32;;;9.80;99.90;;;;;;5120464;27;20161;-80
2023/03/20 12:20:31;;;;;;;13.20;4.07;;;9.50;99.90;;;;;;5108977;27;20054;-80
2023/03/20 12:23:12;;;;;;;12.02;4.82;;;9.50;99.90;;;;;;5109732;27;20046;-79
2023/03/20 12:25:44;;;;;;;14.20;5.30;;;9.40;99.90;;;;;;5132108;27;20035;-79
2023/03/20 12:28:28;;;;;;;13.27;4.82;;;9.50;99.90;;;;;;5124300;27;21911;-79
2023/03/20 12:31:23;;;;;;;12.75;5.07;;;9.50;99.90;;;;;;5124345;27;20078;-79
2023/03/20 12:33:57;;;;;;;14.27;4.97;;;9.50;99.90;;;;;;5116106;27;20038;-79
2023/03/20 12:36:30;;;;;;;12.77;5.13;;;9.50;99.90;;;;;;5129920;27;20074;-79
2023/03/20 12:38:57;;;;;;;13.43;5.50;;;9.40;99.90;;;;;;5129626;27;20104;-79
2023/03/20 12:41:28;;;;;;;14.32;6.28;;;9.40;99.90;;;;;;5089782;27;20051;-77
2023/03/20 12:44:05;;;;;;;13.80;5.90;;;9.80;99.90;;;;;;5124562;27;20130;-78
2023/03/20 12:46:50;;;;;;;12.95;5.50;;;9.30;99.90;;;;;;5102385;27;20096;-80
2023/03/20 12:49:33;;;;;;;13.20;5.88;;;9.30;99.90;;;;;;5120998;27;20494;-80
2023/03/20 12:52:25;;;;;;;17.70;6.57;;;9.20;99.90;;;;;;5124946;27;20448;-76
2023/03/20 12:55:00;;;;;;;13.43;5.95;;;9.20;99.90;;;;;;5108587;27;20477;-80
2023/03/20 12:57:36;;;;;;;13.98;6.80;;;9.20;99.90;;;;;;5103899;27;20044;-80
2023/03/20 13:00:19;;;;;;;13.80;6.80;;;9.10;99.90;;;;;;5118932;27;20420;-79
2023/03/20 13:03:12;;;;;;;15.13;6.88;;;9.10;99.90;;;;;;5120330;27;20039;-79
2023/03/20 13:05:44;;;;;;;13.38;6.97;;;9.10;99.90;;;;;;5082824;27;20111;-80